Date,TemperatureHighF,TemperatureAvgF,TemperatureLowF,DewpointHighF,DewpointAvgF,DewpointLowF,HumidityHigh,HumidityAvg,HumidityLow,PressureMaxIn,PressureMinIn,WindSpeedMaxMPH,WindSpeedAvgMPH,GustSpeedMaxMPH,PrecipitationSumIn
2013-1-1,47,36,30,26,20,11,82,56,27,0.00,40.00,10,4,16,0.00
2013-1-2,55,41,31,29,18,12,55,41,21,0.00,40.00,10,6,16,0.00
2013-1-3,56,40,32,23,18,9,54,43,15,0.00,40.00,10,5,17,0.00
2013-1-4,57,41,32,22,17,10,54,41,16,0.00,40.00,9,5,14,0.00
2013-1-5,57,41,33,23,19,11,57,43,16,0.00,40.00,9,6,12,0.00
2013-1-6,43,36,33,35,30,11,98,83,28,0.00,40.00,7,2,20,0.17
2013-1-7,44,36,28,34,30,25,94,79,62,0.00,40.00,6,3,12,0.01
2013-1-8,58,43,32,34,28,26,83,59,36,0.00,40.00,10,3,17,0.01
2013-1-9,63,51,42,31,27,25,57,41,28,0.00,40.00,16,5,32,0.00
2013-1-10,41,33,27,35,21,14,92,63,49,0.00,40.00,17,8,33,0.00
2013-1-11,37,31,27,19,15,11,64,52,40,0.00,40.00,12,6,24,0.01
2013-1-12,40,28,20,17,15,11,69,57,37,0.00,40.00,10,5,20,0.01
2013-1-13,36,27,20,16,14,10,75,58,38,0.00,40.00,12,6,23,0.01
2013-1-14,39,27,18,12,7,-1,56,44,19,0.00,40.00,9,5,17,0.00
2013-1-15,52,36,24,19,13,9,53,40,20,0.00,40.00,10,4,14,0.04
2013-1-16,61,45,32,22,18,15,49,36,21,0.00,40.00,11,6,15,0.01
2013-1-17,67,48,39,18,11,1,36,24,7,0.00,40.00,12,8,18,0.00
2013-1-18,67,47,37,14,8,1,26,21,7,0.00,40.00,12,8,17,0.00
2013-1-19,68,48,39,14,7,-5,25,20,5,0.00,40.00,12,8,17,0.00
2013-1-20,69,48,38,14,7,-3,26,19,6,0.00,40.00,12,7,17,0.00
2013-1-21,72,51,39,18,9,-1,28,19,6,0.00,40.00,11,7,17,0.00
2013-1-22,70,52,42,16,10,2,27,20,7,0.00,40.00,12,7,16,0.00
2013-1-23,61,50,44,42,20,9,84,32,18,0.00,40.00,10,4,19,0.02
2013-1-24,55,47,44,47,44,39,98,90,71,0.00,40.00,7,2,10,0.38
2013-1-25,54,49,46,46,44,41,98,83,65,0.00,40.00,5,2,9,0.06
2013-1-26,56,49,44,49,42,36,99,81,58,0.00,40.00,15,4,29,0.21
2013-1-27,46,39,34,36,26,19,76,60,46,0.00,40.00,17,8,31,0.02
2013-1-28,41,35,32,25,22,17,71,59,47,0.00,40.00,15,9,28,0.00
2013-1-29,48,38,32,31,27,23,87,66,46,0.00,40.00,8,3,23,0.00
2013-1-30,62,46,33,32,29,27,89,56,26,0.00,40.00,9,4,17,0.00
2013-1-31,68,53,39,32,27,24,63,39,20,0.00,40.00,9,4,17,0.00
2013-2-1,67,50,38,32,26,23,57,42,21,0.00,40.00,9,5,16,0.00
2013-2-2,66,53,45,30,26,21,47,36,18,0.00,40.00,9,4,16,0.00
2013-2-3,62,52,42,32,28,21,55,40,25,0.00,40.00,13,5,23,0.00
2013-2-4,66,51,40,30,26,20,56,39,20,0.00,40.00,11,6,17,0.00
2013-2-5,67,51,39,33,25,21,55,38,19,0.00,40.00,12,6,25,0.00
2013-2-6,57,45,35,36,30,22,86,57,39,0.00,40.00,15,5,25,0.00
2013-2-7,59,41,32,33,23,15,69,51,25,0.00,40.00,21,4,32,0.00
2013-2-8,39,35,31,30,25,19,94,69,52,0.00,40.00,12,6,28,0.15
2013-2-9,40,35,29,27,22,19,78,61,47,0.00,40.00,16,8,29,0.07
2013-2-10,49,36,26,24,21,19,75,57,33,0.00,40.00,10,6,18,0.01
2013-2-11,51,37,28,25,20,11,73,52,20,0.00,40.00,8,6,15,0.00
2013-2-12,57,40,29,23,19,17,62,46,24,0.00,40.00,10,6,20,0.00
2013-2-13,63,44,32,23,19,15,58,39,15,0.00,40.00,9,6,15,0.00
2013-2-14,70,50,37,24,20,16,48,33,14,0.00,40.00,11,6,15,0.00
2013-2-15,73,54,41,21,17,13,41,26,11,0.00,40.00,10,7,17,0.00
2013-2-16,69,53,42,27,12,2,32,21,7,0.00,40.00,11,6,18,0.00
2013-2-17,63,49,39,28,19,10,47,31,22,0.00,40.00,14,5,33,0.00
2013-2-18,67,48,36,30,24,18,57,40,18,0.00,40.00,11,6,19,0.00
2013-2-19,43,37,30,32,27,19,97,68,45,0.00,40.00,14,5,24,0.00
2013-2-20,41,33,28,27,23,19,90,69,48,0.00,40.00,14,6,31,0.25
2013-2-21,50,35,26,26,22,19,83,62,32,0.00,40.00,12,4,28,0.04
2013-2-22,55,39,28,30,23,16,75,55,23,0.00,40.00,7,5,14,0.00
2013-2-23,53,41,32,33,27,22,79,59,42,0.00,40.00,13,6,39,0.00
2013-2-24,58,42,32,30,17,1,85,44,11,0.00,40.00,9,4,16,0.00
2013-2-25,59,43,32,27,18,10,49,37,20,0.00,40.00,17,8,28,0.00
2013-2-26,62,44,32,30,22,15,63,44,16,0.00,40.00,16,5,29,0.00
2013-2-27,64,47,34,27,18,9,49,33,14,0.00,40.00,11,6,21,0.00
2013-2-28,66,49,35,32,22,16,48,36,18,0.00,40.00,10,6,15,0.00
2013-3-1,75,54,40,28,23,19,52,33,13,0.00,40.00,11,6,16,0.00
2013-3-2,73,58,46,29,22,19,34,26,14,0.00,40.00,9,5,19,0.00
2013-3-3,61,54,45,34,29,18,55,38,23,0.00,40.00,13,7,27,0.00
2013-3-4,67,52,42,39,33,30,64,49,31,0.00,40.00,9,5,18,0.00
2013-3-5,70,53,40,35,29,22,58,42,17,0.00,40.00,9,6,19,0.00
2013-3-6,52,45,40,34,29,24,75,55,40,0.00,40.00,11,6,25,0.01
2013-3-7,52,43,36,33,29,25,84,58,37,0.00,40.00,10,3,19,0.01
2013-3-8,40,36,32,35,31,27,98,81,62,0.00,40.00,15,4,28,0.39
2013-3-9,49,40,34,35,31,27,95,71,50,0.00,40.00,14,6,25,0.01
2013-3-10,66,46,31,34,29,15,97,60,15,0.00,40.00,11,3,18,0.00
2013-3-11,73,50,37,34,24,14,54,38,11,0.00,40.00,10,5,20,0.00
2013-3-12,78,56,42,38,25,14,46,33,9,0.00,40.00,11,5,17,0.00
2013-3-13,85,60,46,41,30,20,46,34,10,0.00,40.00,10,6,17,0.00
2013-3-14,83,63,49,33,29,22,40,29,11,0.00,40.00,10,6,19,0.00
2013-3-15,75,61,50,45,36,27,53,40,27,0.00,40.00,18,8,38,0.00
2013-3-16,69,58,48,44,40,24,75,52,32,0.00,40.00,22,6,37,0.00
2013-3-17,65,56,50,39,30,14,49,37,19,0.00,40.00,23,10,41,0.00
2013-3-18,66,53,41,33,28,4,60,40,11,0.00,40.00,18,7,31,0.00
2013-3-19,72,59,48,35,27,14,39,30,22,0.00,40.00,16,8,28,0.00
2013-3-20,65,56,51,35,32,28,51,40,26,0.00,40.00,11,5,28,0.00
2013-3-21,64,54,48,38,34,29,57,48,33,0.00,40.00,24,12,46,0.00
2013-3-22,58,49,39,37,31,21,87,54,34,0.00,40.00,18,8,34,0.00
2013-3-23,65,49,34,30,24,4,67,41,13,0.00,40.00,24,9,36,0.00
2013-3-24,69,52,38,33,24,18,47,34,18,0.00,40.00,16,6,27,0.00
2013-3-25,69,54,43,33,27,21,47,35,21,0.00,40.00,14,6,22,0.00
2013-3-26,67,56,44,35,28,22,50,36,25,0.00,40.00,14,5,24,0.00
2013-3-27,66,56,49,36,32,27,53,41,29,0.00,40.00,15,6,25,0.00
2013-3-28,67,60,51,40,32,20,45,35,20,0.00,40.00,16,7,28,0.00
2013-3-29,77,59,43,40,30,21,51,35,13,0.00,40.00,9,5,16,0.00
2013-3-30,76,62,50,38,32,-100,49,36,17,0.00,40.00,9,6,18,0.00
2013-3-31,64,54,47,44,37,32,79,53,33,0.00,40.00,14,7,29,0.01
2013-4-1,59,49,40,41,33,28,78,54,39,0.00,40.00,16,8,31,0.03
2013-4-2,65,52,41,40,35,29,73,53,36,0.00,40.00,17,5,31,0.01
2013-4-3,79,58,41,42,34,24,75,47,16,0.00,40.00,11,6,19,0.00
2013-4-4,67,58,51,41,33,21,53,40,24,0.00,40.00,14,7,30,0.00
2013-4-5,62,56,51,40,37,34,58,50,40,0.00,40.00,19,9,32,0.00
2013-4-6,62,54,44,38,35,31,62,49,38,0.00,40.00,24,11,44,0.00
2013-4-7,66,55,46,39,36,33,61,49,36,0.00,40.00,18,8,36,0.00
2013-4-8,51,43,34,41,32,24,81,66,53,0.00,40.00,16,10,41,0.33
2013-4-9,62,47,34,30,28,25,79,49,26,0.00,40.00,14,7,26,0.01
2013-4-10,73,57,40,31,26,17,55,33,17,0.00,40.00,15,7,28,0.00
2013-4-11,71,58,47,38,32,25,54,37,27,0.00,40.00,14,7,29,0.00
2013-4-12,76,60,46,42,37,21,74,46,18,0.00,40.00,13,7,22,0.00
2013-4-13,71,61,49,38,35,32,55,38,25,0.00,40.00,18,7,34,0.00
2013-4-14,65,60,53,41,34,27,45,38,31,0.00,40.00,22,9,39,0.00
2013-4-15,57,52,44,35,29,23,51,41,31,0.00,40.00,17,12,38,0.00
2013-4-16,53,42,34,27,22,17,60,45,27,0.00,40.00,17,9,32,0.00
2013-4-17,58,46,33,23,19,13,51,36,23,0.00,40.00,15,7,29,0.00
2013-4-18,68,52,36,26,20,11,57,33,13,0.00,40.00,9,6,18,0.00
2013-4-19,70,56,42,24,20,16,39,26,13,0.00,40.00,15,8,32,0.00
2013-4-20,79,63,46,37,30,22,45,31,12,0.00,40.00,12,6,25,0.00
2013-4-21,80,63,48,37,32,26,48,33,18,0.00,40.00,15,7,28,0.00
2013-4-22,78,66,51,36,32,28,45,30,20,0.00,40.00,17,7,31,0.00
2013-4-23,80,67,51,35,29,18,42,27,10,0.00,40.00,13,6,21,0.00
2013-4-24,77,64,50,33,21,10,38,23,8,0.00,40.00,10,7,24,0.00
2013-4-25,73,61,47,41,33,15,44,35,18,0.00,40.00,17,9,32,0.00
2013-4-26,80,63,48,42,37,17,65,41,14,0.00,40.00,14,5,28,0.00
2013-4-27,86,68,51,39,32,23,49,30,10,0.00,40.00,13,7,26,0.00
2013-4-28,86,71,55,43,38,31,48,32,21,0.00,40.00,16,6,31,0.00
2013-4-29,86,70,56,43,40,37,50,36,21,0.00,40.00,16,6,30,0.00
2013-4-30,78,70,60,43,39,34,42,33,25,0.00,40.00,18,10,33,0.00
2013-5-1,83,68,52,37,20,-3,50,24,4,0.00,40.00,12,5,22,0.00
2013-5-2,83,68,51,18,2,-3,18,8,4,0.00,40.00,12,7,17,0.00
2013-5-3,83,64,50,29,13,-1,19,14,4,0.00,40.00,11,7,27,0.00
2013-5-4,81,68,55,32,26,14,36,22,12,0.00,40.00,13,7,25,0.00
2013-5-5,73,61,51,33,23,13,43,24,14,0.00,40.00,13,5,23,0.00
2013-5-6,65,55,44,43,36,30,89,50,35,0.00,40.00,9,4,21,0.16
2013-5-7,56,50,44,43,39,35,98,66,51,0.00,40.00,15,7,27,0.16
2013-5-8,67,55,43,46,40,35,80,60,37,0.00,40.00,14,5,26,0.08
2013-5-9,65,56,44,48,44,42,94,67,46,0.00,40.00,14,4,23,0.10
2013-5-10,82,67,48,47,43,34,81,46,21,0.00,40.00,13,5,26,0.01
2013-5-11,89,70,53,43,37,-100,57,34,12,0.00,40.00,12,6,23,0.00
2013-5-12,92,75,58,44,39,30,47,30,11,0.00,40.00,13,7,24,0.00
2013-5-13,91,78,63,42,37,28,44,26,12,0.00,40.00,10,6,20,0.00
2013-5-14,85,72,61,37,31,19,39,23,11,0.00,40.00,15,8,30,0.00
2013-5-15,81,69,59,44,38,31,50,33,21,0.00,40.00,16,6,31,0.00
2013-5-16,69,56,54,40,18,-100,53,38,28,0.00,40.00,16,9,34,0.00
2013-5-17,65,58,52,40,33,-100,55,45,35,0.00,40.00,19,11,39,0.00
2013-5-18,70,61,49,34,31,28,49,34,23,0.00,40.00,21,10,39,0.00
2013-5-19,78,65,50,39,32,26,41,30,21,0.00,40.00,17,8,28,0.00
2013-5-20,85,68,52,37,33,22,54,31,10,0.00,40.00,10,6,22,0.00
2013-5-21,80,70,55,30,24,16,30,19,12,0.00,40.00,14,7,32,0.00
2013-5-22,65,59,51,32,29,23,41,32,24,0.00,40.00,24,11,40,0.00
2013-5-23,65,55,41,26,21,13,38,27,19,0.00,40.00,19,9,35,0.00
2013-5-24,79,59,43,30,26,23,48,30,14,0.00,40.00,15,7,28,0.00
2013-5-25,73,62,51,32,28,26,39,28,19,0.00,40.00,19,9,36,0.00
2013-5-26,68,61,52,38,31,22,47,32,24,0.00,40.00,19,8,38,0.00
2013-5-27,71,61,51,40,35,28,48,38,28,0.00,40.00,20,9,35,0.00
2013-5-28,66,59,52,44,40,34,56,48,40,0.00,40.00,25,12,45,0.00
2013-5-29,70,63,55,47,42,39,54,46,36,0.00,40.00,16,10,32,0.00
2013-5-30,79,66,51,43,41,38,67,42,23,0.00,40.00,25,9,43,0.00
2013-5-31,91,72,56,40,34,28,40,27,12,0.00,40.00,15,6,27,0.00
2013-6-1,96,72,57,37,31,14,42,26,5,0.00,40.00,12,6,23,0.00
2013-6-2,92,77,62,39,31,23,26,19,11,0.00,40.00,9,6,24,0.00
2013-6-3,95,76,62,44,38,32,38,26,11,0.00,40.00,13,6,26,0.00
2013-6-4,92,75,61,47,41,35,46,31,19,0.00,40.00,18,7,28,0.00
2013-6-5,99,77,61,51,45,30,54,35,9,0.00,40.00,13,5,26,0.00
2013-6-6,101,79,61,50,44,32,50,32,9,0.00,40.00,13,6,26,0.00
2013-6-7,103,82,64,51,39,23,48,27,6,0.00,40.00,14,6,25,0.00
2013-6-8,108,86,67,54,40,23,33,22,6,0.00,40.00,15,7,30,0.00
2013-6-9,99,84,70,49,43,27,43,27,8,0.00,40.00,9,6,24,0.00
2013-6-10,81,70,57,42,35,24,39,28,16,0.00,40.00,15,9,31,0.00
2013-6-11,91,75,59,40,36,31,43,26,12,0.00,40.00,11,6,22,0.00
2013-6-12,90,75,63,46,36,28,33,25,15,0.00,40.00,15,8,30,0.00
2013-6-13,80,70,63,39,32,26,39,25,16,0.00,40.00,21,10,36,0.00
2013-6-14,89,70,53,35,29,16,36,23,8,0.00,40.00,15,6,25,0.00
2013-6-15,86,71,56,33,30,25,38,23,11,0.00,40.00,13,6,25,0.00
2013-6-16,82,72,59,36,31,26,31,23,17,0.00,40.00,17,8,33,0.00
2013-6-17,83,71,59,41,36,31,39,28,20,0.00,40.00,18,6,36,0.00
2013-6-18,79,69,59,40,36,29,40,30,22,0.00,40.00,18,7,34,0.00
2013-6-19,72,62,54,40,35,31,46,36,26,0.00,40.00,23,12,43,0.00
2013-6-20,75,62,49,33,30,27,48,31,21,0.00,40.00,10,4,24,0.00
2013-6-22,84,77,64,36,34,29,28,21,16,0.00,40.00,18,10,31,0.00
2013-6-23,80,70,61,43,36,32,43,30,20,0.00,40.00,16,7,30,0.00
2013-6-24,71,64,58,49,41,30,56,43,33,0.00,40.00,14,7,28,0.00
2013-6-25,83,70,59,51,48,45,64,46,31,0.00,40.00,16,8,30,0.00
2013-6-26,89,78,64,56,52,48,56,41,29,0.00,40.00,17,8,29,0.00
2013-6-27,99,78,63,56,53,49,68,44,19,0.00,40.00,14,6,26,0.00
2013-6-28,98,82,68,54,51,47,57,37,20,0.00,40.00,15,7,27,0.00
2013-6-29,102,86,69,52,50,45,50,31,16,0.00,40.00,14,6,26,0.00
2013-6-30,104,88,71,50,46,41,46,27,12,0.00,40.00,13,6,27,0.00
2013-7-1,104,86,72,47,43,40,33,24,12,0.00,40.00,13,5,26,0.00
2013-7-2,104,85,73,49,46,42,37,26,13,0.00,40.00,16,7,29,0.00
2013-7-3,101,86,73,49,45,41,32,24,15,0.00,40.00,15,4,27,0.00
2013-7-4,101,87,72,55,50,47,46,30,19,0.00,40.00,14,7,27,0.00
2013-7-5,96,85,71,52,48,41,43,29,20,0.00,40.00,13,7,26,0.00
2013-7-6,97,81,69,45,38,29,35,23,9,0.00,40.00,14,7,27,0.00
2013-7-7,95,82,66,36,30,21,30,17,7,0.00,40.00,14,8,28,0.00
2013-7-8,96,80,69,30,25,-100,19,14,7,0.00,40.00,11,7,24,0.00
2013-7-9,97,83,68,32,28,22,19,14,8,0.00,40.00,12,7,27,0.00
2013-7-10,92,81,72,41,32,-100,23,18,15,0.00,40.00,12,7,22,0.00
2013-7-11,92,78,70,51,44,36,49,31,20,0.00,40.00,11,5,25,0.00
2013-7-12,93,77,62,42,36,27,39,25,11,0.00,40.00,14,6,26,0.00
2013-7-13,93,80,68,38,32,26,29,19,11,0.00,40.00,13,7,23,0.00
2013-7-14,92,80,65,35,32,30,27,18,13,0.00,40.00,15,7,29,0.00
2013-7-15,93,80,67,37,31,26,23,17,12,0.00,40.00,13,5,24,0.00
2013-7-16,89,82,71,36,34,31,23,18,13,0.00,40.00,14,10,28,0.00
2013-7-17,95,77,59,44,36,31,36,24,14,0.00,40.00,13,5,24,0.00
2013-7-18,100,77,61,43,39,35,42,27,12,0.00,40.00,16,6,28,0.00
2013-7-19,101,81,65,40,37,33,38,23,11,0.00,40.00,15,6,26,0.00
2013-7-20,104,82,67,43,35,-100,27,20,10,0.00,40.00,15,7,28,0.00
2013-7-21,100,84,72,49,43,39,33,25,16,0.00,40.00,8,4,19,0.00
2013-7-22,94,78,68,64,55,47,83,48,24,0.00,40.00,9,3,23,0.02
2013-7-23,92,77,66,59,53,48,76,48,25,0.00,40.00,14,5,26,0.02
2013-7-24,93,80,66,52,49,45,59,36,20,0.00,40.00,16,6,30,0.00
2013-7-25,98,82,69,48,47,45,43,30,18,0.00,40.00,16,6,29,0.00
2013-7-26,84,76,67,66,52,46,88,46,32,0.00,40.00,7,2,13,0.05
2013-7-27,92,79,67,60,54,46,74,47,25,0.00,40.00,10,5,20,0.06
2013-7-28,93,80,67,49,45,40,46,31,19,0.00,40.00,15,6,28,0.00
2013-7-29,93,79,65,45,41,38,39,26,15,0.00,40.00,10,5,26,0.00
2013-7-30,96,80,64,47,42,39,40,27,16,0.00,40.00,12,6,23,0.00
2013-7-31,95,77,61,43,39,31,45,28,11,0.00,40.00,12,6,27,0.00
2013-8-1,84,74,61,42,36,32,37,26,18,0.00,40.00,18,9,36,0.00
2013-8-2,88,74,60,33,30,26,32,21,13,0.00,40.00,18,6,29,0.00
2013-8-3,91,75,60,32,28,20,31,19,8,0.00,40.00,11,6,24,0.00
2013-8-4,95,78,61,35,29,24,24,17,9,0.00,40.00,13,7,24,0.00
2013-8-5,91,77,60,37,30,24,29,19,11,0.00,40.00,14,7,27,0.00
2013-8-6,95,77,61,40,36,31,37,24,12,0.00,40.00,17,7,29,0.00
2013-8-7,82,72,59,42,38,33,42,29,20,0.00,40.00,17,7,27,0.00
2013-8-8,82,70,57,43,37,27,49,31,14,0.00,40.00,16,6,29,0.00
2013-8-9,87,71,56,43,39,35,50,33,19,0.00,40.00,12,5,25,0.00
2013-8-10,83,72,59,42,40,38,45,32,23,0.00,40.00,14,6,28,0.00
2013-8-11,90,73,58,44,40,37,47,33,20,0.00,40.00,13,7,27,0.00
2013-8-12,90,74,58,41,39,36,49,30,16,0.00,40.00,13,6,25,0.00
2013-8-13,93,76,60,41,36,-100,43,26,13,0.00,40.00,13,6,24,0.00
2013-8-14,97,77,62,40,34,-100,36,23,11,0.00,40.00,12,6,22,0.00
2013-8-15,97,73,63,36,21,-100,29,17,11,0.00,40.00,10,7,22,0.00
2013-8-16,96,80,65,46,34,-100,29,21,14,0.00,40.00,13,7,25,0.00
2013-8-17,96,80,66,46,39,-100,38,25,13,0.00,40.00,14,6,25,0.00
2013-8-18,101,82,66,47,40,36,38,24,13,0.00,40.00,9,5,26,0.00
2013-8-19,92,68,70,57,24,-100,59,35,23,0.00,40.00,12,7,38,0.43
2013-8-20,99,86,73,54,44,-100,48,27,13,0.00,40.00,9,5,18,0.04
2013-8-21,97,83,70,44,40,37,35,23,13,0.00,40.00,11,7,20,0.00
2013-8-22,97,84,68,44,38,31,38,22,10,0.00,40.00,10,7,23,0.00
2013-8-23,93,77,61,41,36,31,37,24,12,0.00,40.00,14,7,24,0.00
2013-8-24,90,75,60,38,34,-100,39,24,13,0.00,40.00,10,7,23,0.00
2013-8-25,90,74,59,38,34,23,37,24,9,0.00,40.00,12,8,22,0.00
2013-8-26,92,75,61,53,40,30,49,29,17,0.00,40.00,10,6,21,0.00
2013-8-27,78,68,64,53,51,49,64,54,41,0.00,40.00,7,4,14,0.00
2013-8-28,94,85,73,54,48,45,45,29,21,0.00,40.00,12,7,21,0.11
2013-8-29,94,79,64,49,46,43,47,32,19,0.00,40.00,12,7,21,0.00
2013-8-30,98,79,67,51,48,43,48,34,20,0.00,40.00,12,5,23,0.00
2013-8-31,93,78,68,50,45,-100,48,33,22,0.00,40.00,14,5,27,0.00
2013-9-1,90,78,68,52,46,41,43,33,24,0.00,40.00,14,4,23,0.00
2013-9-2,93,79,68,52,50,48,52,38,22,0.00,40.00,11,6,24,0.00
2013-9-3,92,79,66,53,49,47,51,37,23,0.00,40.00,10,6,23,0.00
2013-9-4,95,78,64,52,47,44,55,36,18,0.00,40.00,10,6,20,0.00
2013-9-5,95,78,63,48,44,42,48,32,17,0.00,40.00,12,6,24,0.00
2013-9-6,96,78,63,47,41,35,45,30,12,0.00,40.00,11,6,22,0.00
2013-9-7,93,77,64,41,32,-100,33,21,9,0.00,40.00,14,7,29,0.00
2013-9-8,93,79,66,39,34,29,27,20,12,0.00,40.00,12,6,25,0.00
2013-9-9,92,78,66,43,40,36,38,27,17,0.00,40.00,13,6,26,0.00
2013-9-10,90,78,64,42,39,35,37,26,16,0.00,40.00,10,5,22,0.00
2013-9-11,86,73,62,43,40,36,39,31,21,0.00,40.00,15,5,28,0.00
2013-9-12,88,73,61,48,42,37,45,34,22,0.00,40.00,18,5,34,0.00
2013-9-13,93,74,60,48,45,42,53,37,22,0.00,40.00,15,6,28,0.00
2013-9-14,93,75,62,49,43,-100,50,35,16,0.00,40.00,13,6,22,0.00
2013-9-15,95,80,65,48,42,35,48,30,13,0.00,40.00,11,7,23,0.00
2013-9-16,95,78,62,40,37,30,41,25,12,0.00,40.00,10,6,19,0.00
2013-9-17,82,69,59,46,38,29,47,33,24,0.00,40.00,16,10,29,0.00
2013-9-18,69,62,60,41,38,31,50,42,31,0.00,40.00,7,4,26,0.00
2013-9-19,93,67,52,35,30,16,46,28,6,0.00,40.00,10,6,15,0.00
2013-9-20,87,71,58,38,30,22,31,23,10,0.00,40.00,11,8,27,0.00
2013-9-21,73,63,53,45,37,-100,64,40,28,0.00,40.00,13,7,34,0.00
2013-9-22,65,56,47,39,36,31,60,47,34,0.00,40.00,17,10,30,0.00
2013-9-23,85,64,45,38,35,29,69,39,14,0.00,40.00,10,6,19,0.00
2013-9-24,83,66,52,38,30,25,39,27,13,0.00,40.00,14,6,27,0.00
2013-9-25,64,58,49,42,37,31,60,47,33,0.00,40.00,21,6,34,0.00
2013-9-26,60,50,42,31,29,26,60,44,30,0.00,40.00,15,7,29,0.00
2013-9-27,75,55,40,30,27,21,56,37,16,0.00,40.00,12,7,21,0.00
2013-9-28,81,60,47,25,20,-100,35,23,8,0.00,40.00,9,6,19,0.00
2013-9-29,79,65,52,29,23,18,27,21,13,0.00,40.00,16,8,28,0.00
2013-9-30,78,68,58,39,32,25,30,26,19,0.00,40.00,18,6,31,0.00
2013-10-1,75,68,61,46,44,42,52,45,32,0.00,40.00,12,8,22,0.00
2013-10-2,74,62,51,46,42,36,72,51,29,0.00,40.00,19,6,37,0.00
2013-10-3,67,59,49,37,30,25,44,34,25,0.00,40.00,17,8,36,0.00
2013-10-4,71,54,45,27,16,1,47,29,6,0.00,40.00,10,7,19,0.00
2013-10-5,76,59,48,9,7,4,18,13,6,0.00,40.00,11,5,15,0.00
2013-10-6,83,61,53,11,7,3,16,12,5,0.00,40.00,11,8,16,0.00
2013-10-7,80,64,54,15,7,3,17,11,5,0.00,40.00,9,6,19,0.00
2013-10-8,74,63,52,24,19,11,25,18,12,0.00,40.00,14,7,29,0.00
2013-10-9,54,51,42,33,28,21,62,42,27,0.00,40.00,14,7,26,0.00
2013-10-10,63,53,36,34,32,28,73,45,33,0.00,40.00,14,5,26,0.00
2013-10-11,75,56,42,32,29,26,59,38,19,0.00,40.00,11,6,20,0.00
2013-10-12,72,56,43,31,25,-100,53,34,19,0.00,40.00,17,7,30,0.00
2013-10-13,63,55,47,36,34,30,60,46,30,0.00,40.00,17,8,29,0.00
2013-10-14,72,56,41,32,27,20,61,37,14,0.00,40.00,9,6,14,0.00
2013-10-15,74,58,46,27,22,17,41,26,13,0.00,40.00,10,6,17,0.00
2013-10-16,75,59,45,23,17,12,29,20,10,0.00,40.00,12,7,23,0.00
2013-10-17,74,58,46,27,20,12,34,23,15,0.00,40.00,13,6,26,0.00
2013-10-18,78,58,46,26,22,14,39,27,9,0.00,40.00,10,6,16,0.00
2013-10-19,80,61,49,23,17,-100,26,19,11,0.00,40.00,11,7,21,0.00
2013-10-20,79,60,48,26,12,2,18,15,9,0.00,40.00,11,7,17,0.00
2013-10-21,78,59,50,19,16,9,27,20,7,0.00,40.00,10,6,15,0.00
2013-10-22,82,66,53,17,14,11,20,14,8,0.00,40.00,10,6,16,0.00
2013-10-23,82,63,51,18,16,15,23,17,8,0.00,40.00,10,6,18,0.00
2013-10-24,79,60,50,27,20,15,29,21,12,0.00,40.00,12,5,23,0.00
2013-10-25,78,61,49,31,24,21,36,25,14,0.00,40.00,10,6,14,0.00
2013-10-26,83,61,51,24,18,-100,32,21,9,0.00,40.00,10,6,16,0.00
2013-10-27,77,62,50,31,21,15,35,21,10,0.00,40.00,11,6,26,0.00
2013-10-28,54,43,39,38,31,-100,98,69,45,0.00,40.00,19,10,41,0.82
2013-10-29,52,45,38,40,33,29,99,64,44,0.00,40.00,14,5,26,0.48
2013-10-30,61,46,34,36,32,29,89,61,29,0.00,40.00,9,5,16,0.00
2013-10-31,68,50,38,33,28,21,77,47,18,0.00,40.00,10,6,19,0.00
2013-11-1,77,56,46,29,23,20,40,29,13,0.00,40.00,11,7,19,0.00
2013-11-2,73,56,46,26,20,-100,37,26,13,0.00,40.00,12,7,25,0.00
2013-11-3,67,54,43,35,30,22,65,40,25,0.00,40.00,14,4,34,0.00
2013-11-4,59,48,38,34,30,25,78,51,30,0.00,40.00,10,4,20,0.00
2013-11-5,63,44,35,27,21,10,67,45,13,0.00,40.00,9,6,15,0.00
2013-11-6,74,55,42,18,12,8,28,20,10,0.00,40.00,11,7,18,0.00
2013-11-7,73,60,50,23,20,16,30,22,14,0.00,40.00,10,6,19,0.00
2013-11-8,72,58,46,25,20,16,33,24,14,0.00,40.00,10,5,23,0.00
2013-11-9,74,54,45,22,16,-100,32,23,10,0.00,40.00,11,6,17,0.00
2013-11-10,76,60,46,18,12,9,24,16,8,0.00,40.00,11,6,19,0.00
2013-11-11,79,62,51,18,13,8,21,15,7,0.00,40.00,11,6,16,0.00
2013-11-12,75,63,57,21,16,11,23,16,11,0.00,40.00,10,6,16,0.00
2013-11-13,73,58,48,33,25,18,39,28,19,0.00,40.00,7,3,11,0.00
2013-11-14,76,60,46,30,27,23,42,30,15,0.00,40.00,11,4,24,0.00
2013-11-15,58,52,39,35,32,27,77,48,36,0.00,40.00,14,8,28,0.00
2013-11-16,58,48,37,37,29,-100,96,54,32,0.00,40.00,21,8,42,0.00
2013-11-17,66,50,37,31,28,25,62,45,25,0.00,40.00,9,4,17,0.00
2013-11-18,64,53,43,33,30,28,57,44,28,0.00,40.00,10,5,19,0.00
2013-11-19,60,51,42,36,34,30,71,53,39,0.00,40.00,11,3,28,0.00
2013-11-20,60,51,43,45,37,34,98,60,45,0.00,40.00,18,7,32,0.03
2013-11-21,53,47,40,49,44,39,100,92,60,0.00,40.00,5,2,12,0.43
2013-11-22,45,42,39,41,35,29,99,76,57,0.00,40.00,7,3,12,0.17
2013-11-23,54,45,38,35,30,-100,79,61,42,0.00,40.00,8,3,12,0.01
2013-11-24,59,46,35,35,32,24,80,60,30,0.00,40.00,9,4,15,0.01
2013-11-25,60,46,35,34,32,29,85,60,31,0.00,40.00,9,5,13,0.00
2013-11-26,66,53,43,31,23,19,57,32,18,0.00,40.00,9,3,13,0.00
2013-11-27,62,52,45,29,25,21,54,36,26,0.00,40.00,10,5,19,0.00
2013-11-28,58,49,42,28,25,23,56,39,26,0.00,40.00,12,4,23,0.00
2013-11-29,63,49,41,27,25,22,53,40,25,0.00,40.00,10,6,17,0.00
2013-11-30,64,48,39,29,23,-100,50,40,21,0.00,40.00,9,5,17,0.00
2013-12-1,66,49,38,29,24,20,53,39,18,0.00,40.00,8,5,14,0.00
2013-12-2,74,51,42,22,19,14,39,29,13,0.00,40.00,10,4,22,0.00
2013-12-3,54,47,36,43,32,18,98,62,26,0.00,40.00,14,10,38,0.05
2013-12-4,42,34,27,19,16,11,63,48,37,0.00,40.00,10,6,20,0.03
2013-12-5,40,30,22,16,14,8,71,52,35,0.00,40.00,14,6,25,0.00
2013-12-6,43,30,20,12,8,-3,58,41,22,0.00,40.00,13,5,21,0.00
2013-12-7,37,31,27,32,17,-100,99,60,33,0.00,40.00,13,6,34,0.01
2013-12-8,39,27,18,14,10,6,63,49,33,0.00,40.00,11,4,24,0.01
2013-12-9,44,30,22,10,6,1,56,37,16,0.00,40.00,11,7,17,0.07
2013-12-10,57,40,28,15,8,4,37,27,12,0.00,40.00,11,4,15,0.16
2013-12-11,58,43,36,14,8,5,30,25,12,0.00,40.00,10,7,16,0.00
2013-12-12,61,46,37,13,8,4,27,22,12,0.00,40.00,10,5,15,0.00
2013-12-13,60,44,37,15,11,5,36,27,15,0.00,40.00,9,4,13,0.00
2013-12-14,67,47,38,12,7,-100,31,23,10,0.00,40.00,11,6,17,0.00
2013-12-15,71,53,43,20,14,10,25,21,11,0.00,40.00,11,7,17,0.00
2013-12-16,75,58,49,21,17,14,26,20,11,0.00,40.00,11,6,18,0.00
2013-12-17,73,57,51,23,16,13,24,20,10,0.00,40.00,12,6,16,0.00
2013-12-18,62,56,51,23,19,14,26,23,19,0.00,40.00,9,2,18,0.00
2013-12-19,48,41,34,33,26,13,83,57,24,0.00,40.00,10,5,28,0.02
2013-12-20,51,38,31,29,26,21,80,62,42,0.00,40.00,7,3,11,0.01
2013-12-21,54,38,30,26,22,-100,71,56,34,0.00,40.00,9,3,12,0.01
2013-12-22,63,46,34,27,23,19,59,43,23,0.00,40.00,10,4,17,0.00
2013-12-23,66,49,41,27,24,21,44,37,22,0.00,40.00,11,7,17,0.00
2013-12-24,67,51,40,26,22,16,46,33,19,0.00,40.00,11,6,15,0.00
2013-12-25,72,49,43,18,10,0,32,22,6,0.00,40.00,11,9,17,0.00
2013-12-26,68,48,42,8,-1,-9,17,13,8,0.00,40.00,13,9,17,0.00
2013-12-27,68,53,41,10,-1,-9,13,11,7,0.00,40.00,11,4,16,0.00
2013-12-28,64,52,47,12,1,-100,21,13,10,0.00,40.00,10,2,16,0.00
2013-12-29,62,48,39,10,3,-1,21,16,10,0.00,40.00,10,6,15,0.00
2013-12-30,62,48,39,6,2,-1,20,15,10,0.00,40.00,12,5,20,0.00
2013-12-31,65,50,43,11,6,0,21,16,11,0.00,40.00,10,4,13,0.00
2014-1-1,71,52,41,17,11,8,25,20,10,0.00,40.00,10,6,18,0.00
2014-1-2,69,53,45,20,16,13,31,24,15,0.00,40.00,10,6,17,0.00